Terminal Aerodrome Forecast
Issued by NWS

Home | Current Version | Previous Version | Text Only | Print | Product List | Glossary On
Versions: 1 2 3 4 5 6 7 8 9 10 11 12 13 14 15
000
FTUS43 KIND 300500
TAFBMG
TAF
KBMG 300521Z 3006/0106 00000KT P6SM SKC
     FM300700 00000KT 3SM BR SKC
     FM301300 01006KT P6SM SCT050
     FM301600 01006KT P6SM SCT040
     FM302200 02006KT P6SM SKC
     FM010000 00000KT P6SM SKC
      AMD LTD TO CLD VIS AND WIND TIL 301300=

USA.gov is the U.S. government's official web portal to all federal, state and local government web resources and services.